createdAt,value
2023-05-24T00:03:51.015Z,96051.16
2023-05-24T00:13:57.940Z,96006.13
2023-05-24T00:24:04.553Z,96014.00
2023-05-24T00:34:11.116Z,95998.00
2023-05-24T00:44:17.802Z,95964.00
2023-05-24T00:54:24.375Z,95955.00
2023-05-24T01:04:33.815Z,95923.47
2023-05-24T01:14:46.886Z,95946.50
2023-05-24T01:25:38.618Z,95997.56
2023-05-24T01:35:45.116Z,95994.09
2023-05-24T01:46:15.064Z,95991.19
2023-05-24T01:56:22.155Z,96002.62
2023-05-24T02:06:28.712Z,96020.25
2023-05-24T02:16:35.286Z,96050.84
2023-05-24T02:26:41.932Z,96062.75
2023-05-24T02:36:48.525Z,96031.88
2023-05-24T02:46:55.078Z,96019.16
2023-05-24T02:57:02.966Z,96045.91
2023-05-24T03:07:09.515Z,96064.88
2023-05-24T03:17:16.043Z,96098.22
2023-05-24T03:27:22.565Z,96105.25
2023-05-24T03:37:29.945Z,96145.84
2023-05-24T03:47:36.539Z,96140.88
2023-05-24T03:57:45.886Z,96200.69
2023-05-24T04:07:52.808Z,96273.50
2023-05-24T04:17:59.445Z,96260.44
2023-05-24T04:28:06.437Z,96247.69
2023-05-24T04:38:14.120Z,96258.69
2023-05-24T04:48:22.561Z,96254.19
2023-05-24T04:58:29.127Z,96238.50
2023-05-24T05:08:35.688Z,96245.69
2023-05-24T05:18:42.448Z,96300.81
2023-05-24T05:28:48.971Z,96335.00
2023-05-24T05:38:56.121Z,96397.53
2023-05-24T05:49:02.672Z,96409.63
2023-05-24T05:59:09.175Z,96430.75
2023-05-24T06:09:15.684Z,96480.66
2023-05-24T06:19:22.627Z,96734.94
2023-05-24T06:29:29.154Z,96819.69
2023-05-24T06:39:36.001Z,96846.53
2023-05-24T06:49:43.293Z,96890.69
2023-05-24T06:59:49.822Z,96901.97
2023-05-24T07:09:56.799Z,96926.44
2023-05-24T07:20:03.770Z,96938.53
2023-05-24T07:30:23.543Z,96972.56
2023-05-24T07:40:37.239Z,96982.84
2023-05-24T07:50:44.097Z,96984.06
2023-05-24T08:00:50.684Z,96998.06
2023-05-24T08:10:56.229Z,97023.19
2023-05-24T08:21:02.721Z,97041.72
2023-05-24T08:31:09.278Z,97058.59
2023-05-24T08:41:16.126Z,97076.63
2023-05-24T08:51:23.409Z,97080.78
2023-05-24T09:01:33.284Z,97100.75
2023-05-24T09:11:42.504Z,97119.16
2023-05-24T09:21:50.954Z,97142.41
2023-05-24T09:31:59.235Z,97180.78
2023-05-24T09:42:05.908Z,97182.91
2023-05-24T09:52:15.938Z,97173.28
2023-05-24T10:02:24.336Z,97206.25
2023-05-24T10:12:32.533Z,97185.66
2023-05-24T10:22:43.311Z,97192.44
2023-05-24T10:32:50.649Z,97193.09
2023-05-24T10:42:57.301Z,97207.22
2023-05-24T10:53:14.092Z,97242.41
2023-05-24T11:03:25.820Z,97255.41
2023-05-24T11:13:33.216Z,97256.94
2023-05-24T11:23:39.794Z,97245.84
2023-05-24T11:33:46.302Z,97242.50
2023-05-24T11:43:52.911Z,97332.28
2023-05-24T11:54:00.168Z,97321.69
2023-05-24T12:04:07.705Z,97328.84
2023-05-24T12:14:15.586Z,97365.88
2023-05-24T12:24:22.288Z,97335.72
2023-05-24T12:34:29.114Z,97346.47
2023-05-24T12:44:36.867Z,97391.34
2023-05-24T12:54:43.436Z,97371.47
2023-05-24T13:04:50.124Z,97400.38
2023-05-24T13:14:56.788Z,97397.00
2023-05-24T13:25:04.163Z,97386.09
2023-05-24T13:35:10.867Z,97396.78
2023-05-24T13:45:17.476Z,97409.37
2023-05-24T13:55:24.582Z,97401.53
2023-05-24T14:05:31.996Z,97410.06
2023-05-24T14:15:38.770Z,97432.22
2023-05-24T14:25:47.931Z,97420.22
2023-05-24T14:35:54.623Z,97423.91
2023-05-24T14:46:01.617Z,97422.09
2023-05-24T14:56:10.395Z,97434.31
2023-05-24T15:06:16.952Z,97434.88
2023-05-24T15:16:23.541Z,97440.56
2023-05-24T15:26:30.067Z,97434.00
2023-05-24T15:36:36.639Z,97445.59
2023-05-24T15:46:43.304Z,97455.81
2023-05-24T15:56:51.285Z,97457.66
2023-05-24T16:06:57.780Z,97467.88
2023-05-24T16:17:06.624Z,97470.66
2023-05-24T16:27:13.297Z,97478.44
2023-05-24T16:37:19.901Z,97486.16
2023-05-24T16:47:28.757Z,97484.16
2023-05-24T16:57:37.331Z,97500.37
2023-05-24T17:07:44.256Z,97502.59
2023-05-24T17:17:50.866Z,97548.63
2023-05-24T17:27:57.513Z,97538.75
2023-05-24T17:38:04.035Z,97546.16
2023-05-24T17:48:10.592Z,97561.37
2023-05-24T17:58:17.543Z,97550.31
2023-05-24T18:08:24.146Z,97561.25
2023-05-24T18:18:31.028Z,97574.56
2023-05-24T18:28:38.937Z,97591.66
2023-05-24T18:38:48.572Z,97596.84
2023-05-24T18:48:55.704Z,97595.06
2023-05-24T18:59:02.740Z,97615.97
2023-05-24T19:09:09.370Z,97605.75
2023-05-24T19:19:15.945Z,97640.09
2023-05-24T19:29:22.489Z,97643.16
2023-05-24T19:39:29.023Z,97652.19
2023-05-24T19:49:35.602Z,97640.03
2023-05-24T19:59:42.165Z,97642.66
2023-05-24T20:09:48.708Z,97657.84
2023-05-24T20:19:55.418Z,97634.59
2023-05-24T20:30:01.960Z,97635.78
2023-05-24T20:40:09.549Z,97630.59
2023-05-24T20:50:16.367Z,97638.72
2023-05-24T21:00:22.985Z,97645.25
2023-05-24T21:10:29.573Z,97633.41
2023-05-24T21:20:36.162Z,97655.69
2023-05-24T21:30:42.823Z,97661.25
2023-05-24T21:40:49.832Z,97644.06
2023-05-24T21:50:56.423Z,97659.06
2023-05-24T22:01:03.019Z,97645.75
2023-05-24T22:11:09.525Z,97670.47
2023-05-24T22:21:16.147Z,97673.22
2023-05-24T22:31:23.347Z,97684.84
2023-05-24T22:41:29.951Z,97702.94
2023-05-24T22:51:36.464Z,97699.66
2023-05-24T23:01:43.040Z,97701.09
2023-05-24T23:11:49.678Z,97729.19
2023-05-24T23:21:56.732Z,97734.78
2023-05-24T23:32:03.436Z,97732.47
2023-05-24T23:42:10.010Z,97751.38
2023-05-24T23:52:16.715Z,97728.34
